Time;durP1;ratioP1;P1;durP2;ratioP2;P2;SDS_P1;SDS_P2;PMS_P1;PMS_P2;Temp;Humidity;BMP_temperature;BMP_pressure;BME280_temperature;BME280_humidity;BME280_pressure;Samples;Min_cycle;Max_cycle;Signal;HPM_P1;HPM_P2
2021/12/01 00:00:52;;;;;;;0.90;0.90;;;0.90;99.90;;;;;;5089092;28;20044;-83
2021/12/01 00:03:21;;;;;;;0.65;0.65;;;0.90;99.90;;;;;;5069314;28;20417;-84
2021/12/01 00:05:49;;;;;;;0.65;0.65;;;0.90;99.90;;;;;;5089943;28;20036;-84
2021/12/01 00:08:17;;;;;;;0.80;0.80;;;0.90;99.90;;;;;;5069776;28;20059;-84
2021/12/01 00:10:46;;;;;;;0.70;0.70;;;0.90;99.90;;;;;;5043516;28;20055;-84
2021/12/01 00:13:17;;;;;;;0.75;0.75;;;0.90;99.90;;;;;;5040496;28;20048;-85
2021/12/01 00:15:47;;;;;;;3.80;1.90;;;0.90;99.90;;;;;;5055441;28;20037;-84
2021/12/01 00:18:15;;;;;;;0.80;0.80;;;0.90;99.90;;;;;;5058058;28;20040;-84
2021/12/01 00:20:45;;;;;;;0.80;0.80;;;0.80;99.90;;;;;;5040274;28;20055;-85
2021/12/01 00:23:14;;;;;;;1.08;1.08;;;0.90;99.90;;;;;;5048969;28;20048;-86
2021/12/01 00:25:43;;;;;;;0.80;0.80;;;0.90;99.90;;;;;;5039088;28;20088;-85
2021/12/01 00:28:11;;;;;;;0.70;0.70;;;1.00;99.90;;;;;;5063721;28;20055;-84
2021/12/01 00:30:42;;;;;;;0.80;0.80;;;1.00;99.90;;;;;;5082042;28;20048;-85
2021/12/01 00:33:13;;;;;;;0.75;0.75;;;1.00;99.90;;;;;;5074078;28;20044;-84
2021/12/01 00:35:41;;;;;;;0.80;0.80;;;0.90;99.90;;;;;;5058607;28;20052;-86
2021/12/01 00:38:09;;;;;;;0.80;0.80;;;0.90;99.90;;;;;;5074358;28;20049;-85
2021/12/01 00:40:37;;;;;;;0.85;0.85;;;0.90;99.90;;;;;;5090455;28;20055;-85
2021/12/01 00:43:04;;;;;;;0.70;0.70;;;0.90;99.90;;;;;;5094392;28;20044;-85
2021/12/01 00:45:33;;;;;;;0.82;0.82;;;1.00;99.90;;;;;;5055130;28;20044;-85
2021/12/01 00:48:02;;;;;;;0.98;0.98;;;1.10;99.90;;;;;;5093275;28;20056;-87
2021/12/01 00:50:34;;;;;;;0.85;0.85;;;1.10;99.90;;;;;;5074477;28;20062;-85
2021/12/01 00:53:05;;;;;;;1.10;1.10;;;1.10;99.90;;;;;;5082198;28;20067;-85
2021/12/01 00:55:33;;;;;;;1.50;1.08;;;1.10;99.90;;;;;;5039260;28;20056;-85
2021/12/01 00:58:02;;;;;;;0.82;0.82;;;1.00;99.90;;;;;;5082180;28;20036;-85
2021/12/01 01:00:31;;;;;;;0.85;0.85;;;1.00;99.90;;;;;;5061096;28;20044;-85
2021/12/01 01:02:59;;;;;;;0.90;0.90;;;1.00;99.90;;;;;;5040987;28;20052;-84
2021/12/01 01:05:27;;;;;;;0.90;0.90;;;0.90;99.90;;;;;;5050139;28;20055;-84
2021/12/01 01:07:55;;;;;;;1.33;1.27;;;0.90;99.90;;;;;;5067699;28;20055;-85
2021/12/01 01:10:31;;;;;;;1.20;1.20;;;0.90;99.90;;;;;;5079097;28;20040;-84
2021/12/01 01:18:40;;;;;;;1.25;1.23;;;1.00;99.90;;;;;;5055686;28;20057;-85
2021/12/01 01:21:08;;;;;;;1.00;1.00;;;1.00;99.90;;;;;;5087912;28;20051;-85
2021/12/01 01:23:37;;;;;;;1.00;1.00;;;1.10;99.90;;;;;;5047454;28;20056;-84
2021/12/01 01:26:08;;;;;;;0.80;0.80;;;0.80;99.90;;;;;;5055322;28;20060;-85
2021/12/01 01:28:36;;;;;;;0.82;0.82;;;0.90;99.90;;;;;;5043371;28;20052;-85
2021/12/01 01:31:06;;;;;;;0.80;0.80;;;0.90;99.90;;;;;;5059457;28;20040;-86
2021/12/01 01:33:34;;;;;;;0.60;0.60;;;1.00;99.90;;;;;;5093743;28;20051;-85
2021/12/01 01:36:03;;;;;;;0.82;0.82;;;0.90;99.90;;;;;;5037660;28;20418;-85
2021/12/01 01:38:31;;;;;;;0.70;0.70;;;0.80;99.90;;;;;;5053965;28;20048;-86
2021/12/01 01:41:02;;;;;;;0.70;0.70;;;0.70;99.90;;;;;;5054589;28;20517;-86
2021/12/01 01:43:30;;;;;;;0.70;0.70;;;0.70;99.90;;;;;;5054719;28;20048;-86
2021/12/01 01:45:59;;;;;;;0.90;0.85;;;0.60;99.90;;;;;;5038689;28;20044;-85
2021/12/01 01:48:35;;;;;;;0.80;0.80;;;0.60;99.90;;;;;;5066964;28;20399;-86
2021/12/01 01:51:05;;;;;;;0.73;0.73;;;0.50;99.90;;;;;;5061623;28;20052;-87
2021/12/01 01:53:34;;;;;;;0.95;0.95;;;0.50;99.90;;;;;;5030782;28;20048;-85
2021/12/01 01:56:04;;;;;;;0.73;0.73;;;0.40;99.90;;;;;;5072239;28;20060;-86
2021/12/01 01:58:33;;;;;;;0.68;0.68;;;0.50;99.90;;;;;;5106883;28;20043;-86
2021/12/01 02:01:06;;;;;;;12.93;3.08;;;0.40;99.90;;;;;;5090617;28;20047;-87
2021/12/01 02:03:39;;;;;;;0.70;0.70;;;0.50;99.90;;;;;;5073184;28;20052;-85
2021/12/01 02:06:09;;;;;;;0.60;0.60;;;0.50;99.90;;;;;;5068457;28;20055;-85
2021/12/01 02:08:40;;;;;;;0.80;0.80;;;0.50;99.90;;;;;;5062599;28;20060;-86
2021/12/01 02:11:12;;;;;;;0.70;0.70;;;0.40;99.90;;;;;;5028413;28;20502;-86
2021/12/01 02:13:41;;;;;;;0.70;0.70;;;0.50;99.90;;;;;;5055722;28;20402;-85
2021/12/01 02:16:10;;;;;;;0.68;0.68;;;0.40;99.90;;;;;;5055840;28;20063;-86
2021/12/01 02:18:39;;;;;;;0.60;0.60;;;0.50;99.90;;;;;;5071710;28;20520;-86
2021/12/01 02:21:13;;;;;;;0.70;0.70;;;0.50;99.90;;;;;;5066106;28;20716;-86
2021/12/01 02:23:47;;;;;;;0.70;0.70;;;0.50;99.90;;;;;;5082277;28;20075;-86
2021/12/01 02:26:17;;;;;;;0.68;0.68;;;0.60;99.90;;;;;;5059790;28;20060;-85
2021/12/01 02:28:47;;;;;;;0.75;0.75;;;0.50;99.90;;;;;;5088680;28;20059;-85
2021/12/01 02:31:15;;;;;;;0.75;0.75;;;0.50;99.90;;;;;;5072669;28;20051;-86
2021/12/01 02:33:44;;;;;;;1.42;1.42;;;0.60;99.90;;;;;;5082643;28;20048;-86
2021/12/01 02:36:13;;;;;;;0.75;0.75;;;0.60;99.90;;;;;;5090970;28;20043;-86
2021/12/01 02:38:46;;;;;;;0.70;0.70;;;0.50;99.90;;;;;;5062872;28;20413;-86
2021/12/01 02:41:15;;;;;;;0.60;0.60;;;0.50;99.90;;;;;;5071238;28;20048;-86
2021/12/01 02:43:44;;;;;;;0.90;0.90;;;0.30;99.90;;;;;;5081051;28;20040;-86
2021/12/01 02:46:12;;;;;;;0.75;0.75;;;0.50;99.90;;;;;;5052971;28;20060;-85
2021/12/01 02:48:44;;;;;;;0.73;0.73;;;0.50;99.90;;;;;;5071335;28;20059;-85
2021/12/01 02:51:12;;;;;;;1.17;1.17;;;0.50;99.90;;;;;;5056131;28;20055;-87
2021/12/01 02:53:41;;;;;;;0.73;0.73;;;0.60;99.90;;;;;;5049278;28;20045;-87
2021/12/01 02:56:10;;;;;;;0.70;0.70;;;0.60;99.90;;;;;;5060128;28;20053;-87
2021/12/01 02:58:42;;;;;;;1.10;1.10;;;0.60;99.90;;;;;;5043680;28;20044;-87
2021/12/01 03:01:14;;;;;;;0.77;0.77;;;0.60;99.90;;;;;;5057005;28;20071;-86
2021/12/01 03:03:43;;;;;;;0.68;0.68;;;0.70;99.90;;;;;;5071780;28;20041;-86
2021/12/01 03:06:12;;;;;;;0.90;0.90;;;0.60;99.90;;;;;;5069881;28;20051;-87
2021/12/01 03:08:41;;;;;;;7.00;1.75;;;0.60;99.90;;;;;;5071268;28;20413;-86
2021/12/01 03:11:09;;;;;;;0.73;0.73;;;0.50;99.90;;;;;;5073963;28;20520;-87
2021/12/01 03:13:39;;;;;;;0.70;0.70;;;0.50;99.90;;;;;;5058166;28;20044;-86
2021/12/01 03:16:07;;;;;;;0.55;0.55;;;0.50;99.90;;;;;;5074615;28;20048;-87
2021/12/01 03:18:35;;;;;;;0.70;0.70;;;0.50;99.90;;;;;;5090157;28;20044;-86
2021/12/01 03:21:03;;;;;;;0.80;0.80;;;0.50;99.90;;;;;;5056179;28;20500;-85
2021/12/01 03:23:31;;;;;;;1.02;1.02;;;0.50;99.90;;;;;;5071523;28;20056;-86
2021/12/01 03:25:59;;;;;;;0.70;0.70;;;0.60;99.90;;;;;;5090221;28;20048;-86
2021/12/01 03:28:27;;;;;;;0.75;0.75;;;0.60;99.90;;;;;;5089704;28;20532;-86
2021/12/01 03:30:54;;;;;;;0.88;0.88;;;0.70;99.90;;;;;;5074623;28;20423;-86
2021/12/01 03:33:23;;;;;;;0.90;0.90;;;0.70;99.90;;;;;;5067965;28;20678;-86
2021/12/01 03:35:53;;;;;;;1.77;1.67;;;0.70;99.90;;;;;;5075577;28;20059;-86
2021/12/01 03:38:25;;;;;;;0.93;0.93;;;0.70;99.90;;;;;;5068363;28;20040;-87
2021/12/01 03:40:56;;;;;;;6.47;2.00;;;0.80;99.90;;;;;;5058038;28;20056;-87
2021/12/01 03:43:25;;;;;;;1.13;1.13;;;0.80;99.90;;;;;;5074303;28;20037;-86
2021/12/01 03:45:54;;;;;;;6.32;1.13;;;0.90;99.90;;;;;;5071126;28;20055;-87
2021/12/01 03:48:23;;;;;;;1.17;1.17;;;0.80;99.90;;;;;;5074310;28;20049;-87
2021/12/01 03:50:52;;;;;;;1.98;1.05;;;0.90;99.90;;;;;;5045865;28;20071;-87
2021/12/01 03:53:22;;;;;;;0.60;0.60;;;0.90;99.90;;;;;;5096555;28;20054;-87
2021/12/01 03:55:50;;;;;;;0.82;0.82;;;0.90;99.90;;;;;;5071873;28;20044;-87
2021/12/01 03:58:19;;;;;;;0.70;0.70;;;1.00;99.90;;;;;;5058884;28;20059;-86
2021/12/01 04:00:47;;;;;;;0.73;0.73;;;1.00;99.90;;;;;;5061223;28;20036;-87
2021/12/01 04:03:15;;;;;;;1.17;1.17;;;1.00;99.90;;;;;;5072890;28;20052;-87
2021/12/01 04:05:43;;;;;;;1.65;1.63;;;1.00;99.90;;;;;;5039317;28;20053;-87
2021/12/01 04:08:11;;;;;;;4.72;1.27;;;1.00;99.90;;;;;;5075809;28;20496;-87
2021/12/01 04:10:39;;;;;;;0.80;0.80;;;1.00;99.90;;;;;;5076038;28;20059;-87
2021/12/01 04:13:06;;;;;;;0.80;0.80;;;1.00;99.90;;;;;;5057530;28;20065;-87
2021/12/01 04:15:34;;;;;;;0.82;0.82;;;1.10;99.90;;;;;;5058857;28;20052;-87
2021/12/01 04:18:02;;;;;;;0.90;0.90;;;1.10;99.90;;;;;;5074997;28;20520;-88
2021/12/01 04:20:30;;;;;;;2.15;1.50;;;1.20;99.90;;;;;;5074713;28;20052;-87
2021/12/01 04:22:58;;;;;;;0.82;0.82;;;1.10;99.90;;;;;;5058427;28;20048;-88
2021/12/01 04:25:26;;;;;;;1.10;1.10;;;1.10;99.90;;;;;;5091684;28;20044;-87
2021/12/01 04:27:54;;;;;;;1.02;1.02;;;1.10;99.90;;;;;;5072329;28;20045;-88
2021/12/01 04:30:24;;;;;;;1.35;1.25;;;1.10;99.90;;;;;;5054888;28;20051;-87
2021/12/01 04:32:53;;;;;;;2.05;1.63;;;1.10;99.90;;;;;;5040365;28;20056;-87
2021/12/01 04:35:24;;;;;;;1.60;1.50;;;1.20;99.90;;;;;;5074905;28;20532;-87
2021/12/01 04:37:52;;;;;;;4.90;2.83;;;1.10;99.90;;;;;;5073126;28;20512;-87
2021/12/01 04:40:21;;;;;;;3.03;2.50;;;1.10;99.90;;;;;;5058338;28;20040;-87
2021/12/01 04:42:49;;;;;;;1.83;1.73;;;1.20;99.90;;;;;;5072925;28;20036;-87
2021/12/01 04:45:19;;;;;;;2.70;1.60;;;1.10;99.90;;;;;;5086172;28;20540;-86
2021/12/01 04:47:52;;;;;;;1.48;1.48;;;1.10;99.90;;;;;;5092290;28;20040;-87
2021/12/01 04:50:22;;;;;;;1.38;1.30;;;1.10;99.90;;;;;;5101796;28;20047;-87
2021/12/01 04:52:51;;;;;;;1.73;1.63;;;1.10;99.90;;;;;;5071391;28;20036;-87
2021/12/01 04:55:19;;;;;;;2.03;1.92;;;1.10;99.90;;;;;;5058016;28;20175;-86
2021/12/01 04:57:48;;;;;;;9.60;2.28;;;1.10;99.90;;;;;;5086916;28;20040;-86
2021/12/01 05:00:26;;;;;;;3.67;1.75;;;1.10;99.90;;;;;;5061041;28;20040;-87
2021/12/01 05:02:54;;;;;;;3.83;2.15;;;1.10;99.90;;;;;;5089720;28;20636;-88
2021/12/01 05:05:25;;;;;;;2.55;2.00;;;1.10;99.90;;;;;;5091913;28;20040;-87
2021/12/01 05:07:53;;;;;;;2.90;2.05;;;1.20;99.90;;;;;;5089242;28;20051;-87
2021/12/01 05:10:21;;;;;;;5.88;4.10;;;1.20;99.90;;;;;;5074352;28;20048;-87
2021/12/01 05:12:49;;;;;;;7.57;2.97;;;1.20;99.90;;;;;;5073920;28;20127;-88
2021/12/01 05:15:21;;;;;;;6.47;2.55;;;1.20;99.90;;;;;;5075559;28;20040;-87
2021/12/01 05:17:49;;;;;;;2.78;2.58;;;1.20;99.90;;;;;;5073899;28;20115;-88
2021/12/01 05:20:17;;;;;;;2.97;2.53;;;1.20;99.90;;;;;;5091680;28;20044;-87
2021/12/01 05:22:45;;;;;;;2.95;2.58;;;1.20;99.90;;;;;;5074724;28;20107;-87
2021/12/01 05:25:13;;;;;;;13.77;2.78;;;1.20;99.90;;;;;;5051767;28;20060;-87
2021/12/01 05:27:41;;;;;;;7.20;3.05;;;1.10;99.90;;;;;;5073426;28;20040;-87
2021/12/01 05:30:09;;;;;;;2.15;1.95;;;1.10;99.90;;;;;;5073765;28;20055;-87
2021/12/01 05:32:36;;;;;;;2.50;2.30;;;1.10;99.90;;;;;;5091859;28;20062;-88
2021/12/01 05:35:05;;;;;;;4.55;3.15;;;1.10;99.90;;;;;;5091685;28;20044;-87
2021/12/01 05:37:33;;;;;;;3.00;2.75;;;1.10;99.90;;;;;;5073632;28;20054;-88
2021/12/01 05:40:01;;;;;;;12.45;4.63;;;1.10;99.90;;;;;;5057108;28;20040;-87
2021/12/01 05:42:28;;;;;;;4.78;2.97;;;1.20;99.90;;;;;;5074429;28;20044;-88
2021/12/01 05:44:56;;;;;;;2.80;2.60;;;1.20;99.90;;;;;;5075433;28;20509;-89
2021/12/01 05:47:24;;;;;;;2.03;1.92;;;1.20;99.90;;;;;;5057283;28;20051;-87
2021/12/01 05:49:52;;;;;;;5.90;2.72;;;1.10;99.90;;;;;;5037418;28;20063;-86
2021/12/01 05:52:19;;;;;;;11.05;2.92;;;1.10;99.90;;;;;;5056382;28;20080;-89
2021/12/01 05:54:50;;;;;;;5.05;2.65;;;1.10;99.90;;;;;;5072802;28;20048;-89
2021/12/01 05:57:18;;;;;;;2.55;2.35;;;1.10;99.90;;;;;;5053263;28;20060;-88
2021/12/01 05:59:46;;;;;;;2.78;2.60;;;1.10;99.90;;;;;;5072555;28;20032;-88
2021/12/01 06:02:14;;;;;;;3.00;2.70;;;1.10;99.90;;;;;;5072451;28;20408;-90
2021/12/01 06:04:42;;;;;;;4.65;3.17;;;1.10;99.90;;;;;;5059614;28;20048;-91
2021/12/01 06:07:10;;;;;;;5.20;3.63;;;1.10;99.90;;;;;;5042724;28;20048;-91
2021/12/01 06:09:42;;;;;;;6.35;2.40;;;1.10;99.90;;;;;;5059338;28;20426;-90
2021/12/01 06:12:13;;;;;;;20.63;3.63;;;1.10;99.90;;;;;;5043530;28;20060;-91
2021/12/01 06:14:42;;;;;;;5.53;3.60;;;1.10;99.90;;;;;;5059341;28;20059;-90
2021/12/01 06:17:14;;;;;;;3.33;2.42;;;1.00;99.90;;;;;;5039087;28;20044;-89
2021/12/01 06:19:42;;;;;;;15.52;4.72;;;1.10;99.90;;;;;;5054730;28;20040;-87
2021/12/01 06:22:09;;;;;;;3.63;2.58;;;1.10;99.90;;;;;;5072801;28;20597;-87
2021/12/01 06:24:38;;;;;;;4.45;3.42;;;1.10;99.90;;;;;;5091448;28;20036;-88
2021/12/01 06:27:06;;;;;;;11.32;4.68;;;1.10;99.90;;;;;;5037610;28;20043;-88
2021/12/01 06:29:34;;;;;;;12.15;3.80;;;1.20;99.90;;;;;;5056634;28;20044;-87
2021/12/01 06:32:02;;;;;;;8.02;4.43;;;1.10;99.90;;;;;;5040077;28;20048;-88
2021/12/01 06:34:30;;;;;;;4.53;3.92;;;1.10;99.90;;;;;;5056659;28;20050;-88
2021/12/01 06:36:57;;;;;;;6.20;3.50;;;1.10;99.90;;;;;;5040034;28;20424;-89
2021/12/01 06:39:25;;;;;;;4.45;3.15;;;1.20;99.90;;;;;;5040643;28;20055;-88
2021/12/01 06:41:54;;;;;;;6.05;3.65;;;1.20;99.90;;;;;;5040601;28;20052;-88
2021/12/01 06:44:24;;;;;;;5.13;4.40;;;1.30;99.90;;;;;;5057234;28;20044;-89
2021/12/01 06:46:52;;;;;;;3.80;3.47;;;1.20;99.90;;;;;;5057007;28;20040;-89
2021/12/01 06:49:19;;;;;;;11.55;4.53;;;1.10;99.90;;;;;;5040954;28;20425;-88
2021/12/01 06:51:47;;;;;;;4.60;4.13;;;1.10;99.90;;;;;;5040806;28;20706;-88
2021/12/01 06:54:15;;;;;;;3.78;3.15;;;1.20;99.90;;;;;;5041033;28;20066;-88
2021/12/01 06:56:43;;;;;;;6.35;4.38;;;1.20;99.90;;;;;;5040505;28;20051;-87
2021/12/01 06:59:11;;;;;;;11.73;4.30;;;1.20;99.90;;;;;;5056725;28;20047;-88
2021/12/01 07:01:39;;;;;;;8.27;4.82;;;1.20;99.90;;;;;;5040997;28;20055;-88
2021/12/01 07:04:08;;;;;;;7.88;5.85;;;1.20;99.90;;;;;;5040948;28;20048;-87
2021/12/01 07:06:35;;;;;;;5.63;5.05;;;1.30;99.90;;;;;;5040390;28;20496;-88
2021/12/01 07:09:03;;;;;;;7.63;6.15;;;1.20;99.90;;;;;;5057300;28;20067;-88
2021/12/01 07:11:31;;;;;;;8.13;5.80;;;1.20;99.90;;;;;;5059261;28;20063;-88
2021/12/01 07:13:59;;;;;;;13.15;5.00;;;1.20;99.90;;;;;;5058359;28;20048;-88
2021/12/01 07:16:28;;;;;;;5.30;2.90;;;1.20;99.90;;;;;;5074321;28;20052;-89
2021/12/01 07:18:56;;;;;;;14.90;5.75;;;1.20;99.90;;;;;;5041008;28;20079;-88
2021/12/01 07:21:23;;;;;;;6.65;5.88;;;1.20;99.90;;;;;;5074018;28;20040;-89
2021/12/01 07:23:51;;;;;;;6.03;4.68;;;1.20;99.90;;;;;;5092494;28;20044;-89
2021/12/01 07:26:19;;;;;;;5.30;4.13;;;1.30;99.90;;;;;;5074095;28;20520;-88
2021/12/01 07:28:47;;;;;;;6.05;3.92;;;1.30;99.90;;;;;;5073964;28;20417;-88
2021/12/01 07:31:14;;;;;;;24.75;4.80;;;1.30;99.90;;;;;;5073827;28;20523;-88
2021/12/01 07:33:42;;;;;;;7.55;4.35;;;1.40;99.90;;;;;;5057387;28;20044;-88
2021/12/01 07:36:10;;;;;;;8.52;5.65;;;1.30;99.90;;;;;;5091651;28;20048;-88
2021/12/01 07:38:37;;;;;;;15.48;10.90;;;1.30;99.90;;;;;;5056933;28;20051;-88
2021/12/01 07:41:05;;;;;;;13.07;7.60;;;1.40;99.90;;;;;;5091616;28;20055;-88
2021/12/01 07:43:33;;;;;;;10.68;6.20;;;1.50;99.90;;;;;;5073782;28;20048;-89
2021/12/01 07:46:01;;;;;;;6.63;5.25;;;1.60;99.90;;;;;;5057533;28;20040;-89
2021/12/01 07:48:31;;;;;;;6.57;4.53;;;1.60;99.90;;;;;;5075244;28;20051;-89
2021/12/01 07:50:59;;;;;;;6.30;4.07;;;1.60;99.90;;;;;;5073381;28;20055;-88
2021/12/01 07:53:27;;;;;;;4.32;3.20;;;1.70;99.90;;;;;;5073783;28;20520;-88
2021/12/01 07:55:55;;;;;;;4.20;3.22;;;1.80;99.90;;;;;;5056874;28;20055;-89
2021/12/01 07:58:23;;;;;;;5.10;3.45;;;1.80;99.90;;;;;;5073403;28;20044;-88
2021/12/01 08:00:50;;;;;;;4.00;3.70;;;1.90;99.90;;;;;;5073637;28;20044;-88
2021/12/01 08:03:18;;;;;;;2.85;2.65;;;1.90;99.90;;;;;;5091523;28;20044;-88
2021/12/01 08:05:47;;;;;;;12.90;4.13;;;2.00;99.90;;;;;;5073650;28;20508;-88
2021/12/01 08:08:17;;;;;;;3.03;2.85;;;2.10;99.90;;;;;;5092037;28;20040;-88
2021/12/01 08:10:46;;;;;;;4.05;3.70;;;2.10;99.90;;;;;;5073487;28;20052;-87
2021/12/01 08:13:13;;;;;;;7.25;5.07;;;2.10;99.90;;;;;;5072952;28;20056;-89
2021/12/01 08:15:49;;;;;;;11.32;5.00;;;1.90;99.90;;;;;;5091127;28;20056;-88
2021/12/01 08:18:18;;;;;;;7.13;6.25;;;2.00;99.90;;;;;;5073647;28;20066;-90
2021/12/01 08:20:46;;;;;;;9.13;5.63;;;2.10;99.90;;;;;;5094221;28;20048;-89
2021/12/01 08:23:14;;;;;;;9.40;6.57;;;2.10;99.90;;;;;;5094889;28;20036;-88
2021/12/01 08:25:42;;;;;;;6.45;4.65;;;2.00;99.90;;;;;;5094622;28;20071;-89
2021/12/01 08:28:10;;;;;;;5.50;4.10;;;1.90;99.90;;;;;;5094575;28;20047;-89
2021/12/01 08:30:38;;;;;;;5.47;4.32;;;1.90;99.90;;;;;;5094514;28;20044;-89
2021/12/01 08:33:06;;;;;;;3.92;3.58;;;2.10;99.90;;;;;;5076615;28;20055;-89
2021/12/01 08:35:33;;;;;;;3.60;3.30;;;2.10;99.90;;;;;;5076280;28;20044;-89
2021/12/01 08:38:01;;;;;;;10.68;3.67;;;2.10;99.90;;;;;;5076614;28;20405;-89
2021/12/01 08:40:29;;;;;;;4.15;3.35;;;2.10;99.90;;;;;;5076742;28;20044;-89
2021/12/01 08:42:57;;;;;;;4.25;3.72;;;2.10;99.90;;;;;;5094172;28;20044;-89
2021/12/01 08:45:24;;;;;;;3.25;2.97;;;2.10;99.90;;;;;;5093782;28;20548;-90
2021/12/01 08:47:52;;;;;;;9.30;3.05;;;2.20;99.90;;;;;;5094113;28;20049;-89
2021/12/01 08:50:20;;;;;;;8.25;3.17;;;2.00;99.90;;;;;;5094377;28;20044;-89
2021/12/01 08:52:48;;;;;;;1.95;1.77;;;1.90;99.90;;;;;;5076221;28;20039;-89
2021/12/01 08:55:17;;;;;;;2.30;2.10;;;1.90;99.90;;;;;;5075943;28;20044;-90
2021/12/01 08:58:05;;;;;;;1.90;1.80;;;1.90;99.90;;;;;;5045300;28;20520;-90
2021/12/01 09:00:43;;;;;;;1.67;1.67;;;1.90;99.90;;;;;;5060382;28;20052;-90
2021/12/01 09:03:17;;;;;;;7.32;2.08;;;2.00;99.90;;;;;;5094383;28;20043;-90
2021/12/01 09:05:46;;;;;;;2.25;1.70;;;2.10;99.90;;;;;;5076166;28;20048;-91
2021/12/01 09:08:16;;;;;;;2.33;2.20;;;2.20;99.90;;;;;;5059287;28;20060;-91
2021/12/01 09:10:44;;;;;;;30.33;4.22;;;2.20;99.90;;;;;;5094111;28;20052;-91
2021/12/01 09:13:12;;;;;;;3.60;3.30;;;2.30;99.90;;;;;;5094189;28;20409;-90
2021/12/01 09:15:42;;;;;;;2.67;2.47;;;2.30;99.90;;;;;;5094305;28;20048;-91
2021/12/01 09:18:10;;;;;;;2.45;2.25;;;2.20;99.90;;;;;;5043838;28;20052;-92
2021/12/01 09:20:38;;;;;;;3.80;3.00;;;2.20;99.90;;;;;;5059460;28;20048;-92
2021/12/01 09:23:06;;;;;;;4.13;1.95;;;2.20;99.90;;;;;;5075797;28;20051;-91
2021/12/01 09:25:34;;;;;;;2.38;1.95;;;2.30;99.90;;;;;;5075934;28;20052;-92
2021/12/01 09:28:18;;;;;;;2.22;2.13;;;2.30;99.90;;;;;;5077477;28;20052;-91
2021/12/01 09:30:46;;;;;;;3.83;2.53;;;2.40;99.90;;;;;;5093527;28;20048;-91
2021/12/01 09:33:14;;;;;;;4.03;2.35;;;2.40;99.90;;;;;;5059010;28;20051;-91
2021/12/01 09:35:44;;;;;;;1.67;1.63;;;2.40;99.90;;;;;;5093975;28;20055;-90
2021/12/01 09:38:14;;;;;;;1.90;1.80;;;2.30;99.90;;;;;;5061525;28;20055;-91
2021/12/01 09:40:52;;;;;;;2.75;2.53;;;2.40;99.90;;;;;;5061995;28;20059;-92
2021/12/01 09:43:25;;;;;;;2.40;2.30;;;2.40;99.90;;;;;;5076100;28;20047;-89
2021/12/01 09:45:54;;;;;;;2.30;2.10;;;2.40;99.90;;;;;;5060124;28;20063;-91
2021/12/01 09:48:23;;;;;;;2.83;2.63;;;2.40;99.90;;;;;;5059195;28;20048;-91
2021/12/01 09:51:14;;;;;;;1.95;1.85;;;2.40;99.90;;;;;;5093310;28;20052;-92
2021/12/01 09:53:44;;;;;;;3.30;3.00;;;2.60;99.90;;;;;;5058514;28;20060;-91
2021/12/01 09:56:12;;;;;;;6.15;3.60;;;2.60;99.90;;;;;;5042045;28;20139;-91
2021/12/01 09:58:42;;;;;;;2.90;2.55;;;2.60;99.90;;;;;;5092830;28;20044;-91
2021/12/01 10:01:16;;;;;;;3.47;3.17;;;2.70;99.90;;;;;;5093274;28;20497;-90
2021/12/01 10:03:45;;;;;;;2.70;2.50;;;2.70;99.90;;;;;;5075038;28;20051;-90
2021/12/01 10:06:17;;;;;;;14.52;4.00;;;2.70;99.90;;;;;;5074637;28;20047;-89
2021/12/01 10:08:52;;;;;;;3.05;2.90;;;2.60;99.90;;;;;;5057997;28;20417;-90
2021/12/01 10:11:26;;;;;;;2.28;2.00;;;2.70;99.90;;;;;;5041294;28;20056;-90
2021/12/01 10:13:57;;;;;;;1.77;1.67;;;2.70;99.90;;;;;;5095229;28;20489;-90
2021/12/01 10:16:28;;;;;;;1.83;1.73;;;2.90;99.90;;;;;;5073902;28;20055;-90
2021/12/01 10:18:59;;;;;;;2.10;2.00;;;3.30;99.90;;;;;;5074380;28;20055;-90
2021/12/01 10:21:35;;;;;;;2.30;2.10;;;3.50;99.90;;;;;;5091912;28;20048;-91
2021/12/01 10:24:11;;;;;;;3.15;2.90;;;3.50;99.90;;;;;;5092508;28;20059;-90
2021/12/01 10:26:39;;;;;;;;;;;4.00;99.90;;;;;;5076883;28;20433;-90
2021/12/01 10:29:15;;;;;;;16.10;2.90;;;4.30;99.90;;;;;;5091968;28;20412;-90
2021/12/01 10:31:51;;;;;;;3.45;3.15;;;4.40;99.90;;;;;;5057483;28;20052;-91
2021/12/01 10:34:32;;;;;;;3.75;3.55;;;4.40;99.90;;;;;;5074222;28;20398;-91
2021/12/01 10:37:07;;;;;;;3.13;2.92;;;4.80;99.90;;;;;;5073947;28;20063;-90
2021/12/01 10:39:40;;;;;;;1.25;1.25;;;5.50;99.90;;;;;;5057646;28;20060;-91
2021/12/01 10:42:11;;;;;;;1.45;1.35;;;5.10;99.90;;;;;;5040157;28;20044;-90
2021/12/01 10:44:58;;;;;;;1.10;1.10;;;4.40;99.90;;;;;;5041518;28;20067;-92
2021/12/01 10:47:37;;;;;;;2.15;1.23;;;4.10;99.90;;;;;;5041833;28;20044;-92
2021/12/01 10:50:06;;;;;;;1.45;1.40;;;3.90;99.90;;;;;;5059235;28;20036;-90
2021/12/01 10:52:39;;;;;;;1.92;1.88;;;4.00;99.90;;;;;;5093452;28;20048;-92
2021/12/01 10:55:10;;;;;;;2.08;1.98;;;4.40;99.90;;;;;;5076563;28;20070;-92
2021/12/01 10:57:42;;;;;;;1.83;1.75;;;5.00;99.90;;;;;;5061025;28;20051;-93
2021/12/01 11:00:21;;;;;;;3.45;2.40;;;5.00;99.90;;;;;;5046972;28;20064;-92
2021/12/01 11:02:51;;;;;;;1.52;1.42;;;4.70;99.90;;;;;;5045658;28;20055;-92
2021/12/01 11:05:46;;;;;;;1.75;1.65;;;4.60;99.90;;;;;;5047668;28;20520;-93
2021/12/01 11:08:26;;;;;;;2.97;2.45;;;4.50;99.90;;;;;;5051578;28;20516;-94
2021/12/01 11:11:04;;;;;;;1.20;1.20;;;4.20;99.90;;;;;;5061018;28;20059;-92
2021/12/01 11:13:34;;;;;;;1.40;1.40;;;3.90;99.90;;;;;;5061351;28;20059;-93
2021/12/01 11:16:06;;;;;;;1.02;1.02;;;3.60;99.90;;;;;;5045388;28;20063;-93
2021/12/01 11:18:49;;;;;;;1.70;1.60;;;3.50;99.90;;;;;;5042843;28;20060;-91
2021/12/01 11:21:24;;;;;;;1.63;1.63;;;3.30;99.90;;;;;;5060573;28;20055;-92
2021/12/01 11:23:56;;;;;;;2.55;2.35;;;3.20;99.90;;;;;;5058280;28;20047;-92
2021/12/01 11:26:26;;;;;;;0.90;0.90;;;3.20;99.90;;;;;;5058597;28;20055;-93
2021/12/01 11:29:00;;;;;;;6.32;1.25;;;3.10;99.90;;;;;;5058591;28;20055;-92
2021/12/01 11:31:34;;;;;;;1.70;1.70;;;3.20;99.90;;;;;;5058617;28;20044;-93
2021/12/01 11:34:16;;;;;;;2.53;2.40;;;3.40;99.90;;;;;;5059180;28;20537;-92
2021/12/01 11:36:51;;;;;;;2.95;1.88;;;3.50;99.90;;;;;;5042983;28;20055;-92
2021/12/01 11:39:26;;;;;;;1.70;1.60;;;3.50;99.90;;;;;;5060010;28;20048;-93
2021/12/01 11:41:55;;;;;;;1.27;1.27;;;3.60;99.90;;;;;;5043998;28;20128;-93
2021/12/01 11:44:25;;;;;;;2.90;2.10;;;3.80;99.90;;;;;;5059146;28;20036;-93
2021/12/01 11:46:54;;;;;;;1.95;1.85;;;3.80;99.90;;;;;;5059204;28;20044;-92
2021/12/01 11:49:28;;;;;;;2.30;2.10;;;3.90;99.90;;;;;;5061478;28;20122;-92
2021/12/01 11:52:04;;;;;;;1.42;1.40;;;4.00;99.90;;;;;;5064537;28;20063;-92
2021/12/01 11:54:42;;;;;;;1.13;1.13;;;3.90;99.90;;;;;;5050264;28;20063;-93
2021/12/01 11:57:13;;;;;;;1.10;1.10;;;3.80;99.90;;;;;;5053699;28;20125;-93
2021/12/01 11:59:49;;;;;;;1.77;1.38;;;3.70;99.90;;;;;;5057595;28;20239;-94
2021/12/01 12:02:25;;;;;;;0.82;0.82;;;3.70;99.90;;;;;;5059180;28;20036;-94
2021/12/01 12:04:58;;;;;;;1.67;1.67;;;3.60;99.90;;;;;;5069727;28;20040;-94
2021/12/01 12:07:36;;;;;;;1.33;1.33;;;3.60;99.90;;;;;;5034623;28;20391;-91
2021/12/01 12:10:07;;;;;;;1.10;1.10;;;3.60;99.90;;;;;;5046345;28;20055;-93
2021/12/01 12:13:03;;;;;;;2.83;1.60;;;3.60;99.90;;;;;;5071692;28;20051;-93
2021/12/01 12:15:46;;;;;;;1.25;1.25;;;3.60;99.90;;;;;;5075245;28;20070;-93
2021/12/01 12:18:38;;;;;;;0.80;0.80;;;3.60;99.90;;;;;;5061372;28;20051;-92
2021/12/01 12:21:42;;;;;;;1.38;1.38;;;3.70;99.90;;;;;;5089456;28;20047;-92
2021/12/01 12:24:18;;;;;;;1.10;1.10;;;3.60;99.90;;;;;;5084259;28;20039;-92
2021/12/01 12:27:00;;;;;;;2.17;2.08;;;3.70;99.90;;;;;;5069447;28;20505;-91
2021/12/01 12:29:29;;;;;;;2.35;2.25;;;3.60;99.90;;;;;;5067845;28;20055;-92
2021/12/01 12:32:18;;;;;;;1.33;1.33;;;3.50;99.90;;;;;;5067445;28;20051;-91
2021/12/01 12:34:52;;;;;;;2.00;1.80;;;3.60;99.90;;;;;;5073575;28;20043;-94
2021/12/01 12:37:27;;;;;;;4.43;2.50;;;3.50;99.90;;;;;;5065647;28;20452;-93
2021/12/01 12:40:11;;;;;;;1.30;1.30;;;3.60;99.90;;;;;;5093597;28;20043;-92
2021/12/01 12:43:13;;;;;;;3.15;2.53;;;3.60;99.90;;;;;;5073446;28;20055;-93
2021/12/01 12:46:02;;;;;;;1.70;1.70;;;3.50;99.90;;;;;;5047774;28;20043;-92
2021/12/01 12:48:34;;;;;;;2.08;2.08;;;3.50;99.90;;;;;;5072097;28;20051;-91
2021/12/01 12:51:25;;;;;;;2.78;2.67;;;3.40;99.90;;;;;;5088811;28;20118;-93
2021/12/01 12:54:06;;;;;;;1.67;1.67;;;3.50;99.90;;;;;;5068159;28;20051;-92
2021/12/01 12:56:44;;;;;;;2.13;2.03;;;3.50;99.90;;;;;;5083800;28;20071;-92
2021/12/01 12:59:34;;;;;;;1.35;1.35;;;3.50;99.90;;;;;;5084663;28;20047;-92
2021/12/01 13:02:07;;;;;;;1.77;1.77;;;3.60;99.90;;;;;;5072260;28;20047;-93
2021/12/01 13:05:05;;;;;;;2.60;2.30;;;3.60;99.90;;;;;;5069352;28;20050;-92
2021/12/01 13:07:35;;;;;;;1.33;1.27;;;3.60;99.90;;;;;;5068791;28;20051;-92
2021/12/01 13:10:20;;;;;;;1.42;1.33;;;3.60;99.90;;;;;;5066964;28;20052;-91
2021/12/01 13:12:50;;;;;;;2.20;2.10;;;3.50;99.90;;;;;;5070795;28;20051;-92
2021/12/01 13:15:45;;;;;;;1.73;1.73;;;3.50;99.90;;;;;;5070968;28;20134;-92
2021/12/01 13:18:18;;;;;;;4.80;2.08;;;3.60;99.90;;;;;;5069735;28;20501;-91
2021/12/01 13:20:57;;;;;;;1.55;1.55;;;3.60;99.90;;;;;;5084779;28;20063;-90
2021/12/01 13:23:39;;;;;;;1.90;1.80;;;3.60;99.90;;;;;;5100179;28;20102;-91